sensor_id;sensor_type;location;lat;lon;timestamp;P1;durP1;ratioP1;P2;durP2;ratioP2
37645;SDS011;23489;49.600;6.138;2023-11-19T00:01:56;1.50;;;0.88;;
37645;SDS011;23489;49.600;6.138;2023-11-19T00:04:22;0.80;;;0.80;;
37645;SDS011;23489;49.600;6.138;2023-11-19T00:06:48;1.90;;;1.10;;
37645;SDS011;23489;49.600;6.138;2023-11-19T00:09:13;2.67;;;1.20;;
37645;SDS011;23489;49.600;6.138;2023-11-19T00:11:41;1.20;;;1.00;;
37645;SDS011;23489;49.600;6.138;2023-11-19T00:14:07;1.05;;;0.70;;
37645;SDS011;23489;49.600;6.138;2023-11-19T00:16:33;0.68;;;0.68;;
37645;SDS011;23489;49.600;6.138;2023-11-19T00:18:59;1.30;;;1.05;;
37645;SDS011;23489;49.600;6.138;2023-11-19T00:21:25;2.22;;;0.88;;
37645;SDS011;23489;49.600;6.138;2023-11-19T00:23:53;1.92;;;0.90;;
37645;SDS011;23489;49.600;6.138;2023-11-19T00:26:19;0.80;;;0.80;;
37645;SDS011;23489;49.600;6.138;2023-11-19T00:28:49;1.30;;;0.85;;
37645;SDS011;23489;49.600;6.138;2023-11-19T00:31:14;0.85;;;0.52;;
37645;SDS011;23489;49.600;6.138;2023-11-19T00:33:40;1.92;;;0.70;;
37645;SDS011;23489;49.600;6.138;2023-11-19T00:36:05;0.75;;;0.73;;
37645;SDS011;23489;49.600;6.138;2023-11-19T00:38:31;1.35;;;1.00;;
37645;SDS011;23489;49.600;6.138;2023-11-19T00:40:57;2.47;;;0.80;;
37645;SDS011;23489;49.600;6.138;2023-11-19T00:43:23;0.98;;;0.88;;
37645;SDS011;23489;49.600;6.138;2023-11-19T00:45:48;0.63;;;0.60;;
37645;SDS011;23489;49.600;6.138;2023-11-19T00:48:16;0.82;;;0.70;;
37645;SDS011;23489;49.600;6.138;2023-11-19T00:50:42;0.65;;;0.57;;
37645;SDS011;23489;49.600;6.138;2023-11-19T00:53:09;0.52;;;0.52;;
37645;SDS011;23489;49.600;6.138;2023-11-19T00:55:35;0.60;;;0.60;;
37645;SDS011;23489;49.600;6.138;2023-11-19T00:58:01;0.57;;;0.55;;
37645;SDS011;23489;49.600;6.138;2023-11-19T01:00:28;0.63;;;0.63;;
37645;SDS011;23489;49.600;6.138;2023-11-19T01:02:54;1.40;;;0.80;;
37645;SDS011;23489;49.600;6.138;2023-11-19T01:05:20;6.15;;;0.90;;
37645;SDS011;23489;49.600;6.138;2023-11-19T01:07:49;0.93;;;0.70;;
37645;SDS011;23489;49.600;6.138;2023-11-19T01:10:17;1.08;;;0.68;;
37645;SDS011;23489;49.600;6.138;2023-11-19T01:12:43;0.82;;;0.82;;
37645;SDS011;23489;49.600;6.138;2023-11-19T01:15:09;0.70;;;0.65;;
37645;SDS011;23489;49.600;6.138;2023-11-19T01:17:38;1.02;;;0.90;;
37645;SDS011;23489;49.600;6.138;2023-11-19T01:20:04;2.35;;;1.08;;
37645;SDS011;23489;49.600;6.138;2023-11-19T01:22:32;1.77;;;1.00;;
37645;SDS011;23489;49.600;6.138;2023-11-19T01:24:58;1.55;;;1.27;;
37645;SDS011;23489;49.600;6.138;2023-11-19T01:27:24;1.75;;;1.40;;
37645;SDS011;23489;49.600;6.138;2023-11-19T01:29:50;2.90;;;1.60;;
37645;SDS011;23489;49.600;6.138;2023-11-19T01:32:15;2.05;;;1.50;;
37645;SDS011;23489;49.600;6.138;2023-11-19T01:34:41;1.92;;;1.73;;
37645;SDS011;23489;49.600;6.138;2023-11-19T01:37:07;2.47;;;1.50;;
37645;SDS011;23489;49.600;6.138;2023-11-19T01:39:35;2.28;;;1.80;;
37645;SDS011;23489;49.600;6.138;2023-11-19T01:42:00;2.88;;;1.52;;
37645;SDS011;23489;49.600;6.138;2023-11-19T01:44:26;1.75;;;1.48;;
37645;SDS011;23489;49.600;6.138;2023-11-19T01:46:52;1.70;;;1.60;;
37645;SDS011;23489;49.600;6.138;2023-11-19T01:49:17;1.90;;;1.60;;
37645;SDS011;23489;49.600;6.138;2023-11-19T01:51:45;4.20;;;2.42;;
37645;SDS011;23489;49.600;6.138;2023-11-19T01:54:12;2.88;;;2.40;;
37645;SDS011;23489;49.600;6.138;2023-11-19T01:56:38;4.53;;;2.92;;
37645;SDS011;23489;49.600;6.138;2023-11-19T01:59:08;4.55;;;3.22;;
37645;SDS011;23489;49.600;6.138;2023-11-19T02:01:36;6.15;;;3.95;;
37645;SDS011;23489;49.600;6.138;2023-11-19T02:04:05;5.28;;;4.00;;
37645;SDS011;23489;49.600;6.138;2023-11-19T02:06:32;7.07;;;4.70;;
37645;SDS011;23489;49.600;6.138;2023-11-19T02:08:59;4.72;;;4.13;;
37645;SDS011;23489;49.600;6.138;2023-11-19T02:11:26;4.10;;;3.55;;
37645;SDS011;23489;49.600;6.138;2023-11-19T02:13:54;5.68;;;3.30;;
37645;SDS011;23489;49.600;6.138;2023-11-19T02:16:21;3.95;;;3.15;;
37645;SDS011;23489;49.600;6.138;2023-11-19T02:18:47;4.55;;;2.90;;
37645;SDS011;23489;49.600;6.138;2023-11-19T02:21:13;4.72;;;3.00;;
37645;SDS011;23489;49.600;6.138;2023-11-19T02:23:40;4.25;;;2.85;;
37645;SDS011;23489;49.600;6.138;2023-11-19T02:28:53;5.03;;;2.47;;
37645;SDS011;23489;49.600;6.138;2023-11-19T02:31:19;4.30;;;2.42;;
37645;SDS011;23489;49.600;6.138;2023-11-19T02:33:45;4.43;;;2.75;;
37645;SDS011;23489;49.600;6.138;2023-11-19T02:36:11;3.67;;;2.97;;
37645;SDS011;23489;49.600;6.138;2023-11-19T02:38:36;3.60;;;2.65;;
37645;SDS011;23489;49.600;6.138;2023-11-19T02:41:06;6.10;;;2.88;;
37645;SDS011;23489;49.600;6.138;2023-11-19T02:43:32;6.03;;;3.63;;
37645;SDS011;23489;49.600;6.138;2023-11-19T02:46:04;4.60;;;3.40;;
37645;SDS011;23489;49.600;6.138;2023-11-19T02:48:34;5.00;;;3.22;;
37645;SDS011;23489;49.600;6.138;2023-11-19T02:51:03;3.88;;;3.40;;
37645;SDS011;23489;49.600;6.138;2023-11-19T02:53:29;7.00;;;4.25;;
37645;SDS011;23489;49.600;6.138;2023-11-19T02:55:56;4.93;;;3.50;;
37645;SDS011;23489;49.600;6.138;2023-11-19T02:58:34;8.27;;;3.50;;
37645;SDS011;23489;49.600;6.138;2023-11-19T03:01:00;6.22;;;3.40;;
37645;SDS011;23489;49.600;6.138;2023-11-19T03:03:34;4.55;;;3.40;;
37645;SDS011;23489;49.600;6.138;2023-11-19T03:06:06;3.75;;;3.10;;
37645;SDS011;23489;49.600;6.138;2023-11-19T03:08:35;5.43;;;3.50;;
37645;SDS011;23489;49.600;6.138;2023-11-19T03:11:01;5.28;;;3.40;;
37645;SDS011;23489;49.600;6.138;2023-11-19T03:13:27;6.75;;;3.75;;
37645;SDS011;23489;49.600;6.138;2023-11-19T03:15:52;7.03;;;3.50;;
37645;SDS011;23489;49.600;6.138;2023-11-19T03:18:21;6.93;;;3.88;;
37645;SDS011;23489;49.600;6.138;2023-11-19T03:20:46;7.60;;;3.92;;
37645;SDS011;23489;49.600;6.138;2023-11-19T03:23:13;5.60;;;3.65;;
37645;SDS011;23489;49.600;6.138;2023-11-19T03:25:38;6.03;;;3.60;;
37645;SDS011;23489;49.600;6.138;2023-11-19T03:28:04;6.40;;;4.00;;
37645;SDS011;23489;49.600;6.138;2023-11-19T03:30:30;5.82;;;3.50;;
37645;SDS011;23489;49.600;6.138;2023-11-19T03:32:56;8.93;;;3.80;;
37645;SDS011;23489;49.600;6.138;2023-11-19T03:35:22;6.97;;;3.40;;
37645;SDS011;23489;49.600;6.138;2023-11-19T03:37:49;7.57;;;3.30;;
37645;SDS011;23489;49.600;6.138;2023-11-19T03:40:15;5.97;;;3.60;;
37645;SDS011;23489;49.600;6.138;2023-11-19T03:42:41;5.78;;;3.45;;
37645;SDS011;23489;49.600;6.138;2023-11-19T03:45:07;6.47;;;3.60;;
37645;SDS011;23489;49.600;6.138;2023-11-19T03:47:35;6.93;;;3.10;;
37645;SDS011;23489;49.600;6.138;2023-11-19T03:50:01;5.05;;;3.15;;
37645;SDS011;23489;49.600;6.138;2023-11-19T03:52:28;3.97;;;2.42;;
37645;SDS011;23489;49.600;6.138;2023-11-19T03:54:56;3.78;;;2.53;;
37645;SDS011;23489;49.600;6.138;2023-11-19T03:57:23;2.70;;;2.13;;
37645;SDS011;23489;49.600;6.138;2023-11-19T03:59:49;2.40;;;1.90;;
37645;SDS011;23489;49.600;6.138;2023-11-19T04:02:15;3.38;;;1.80;;
37645;SDS011;23489;49.600;6.138;2023-11-19T04:04:41;3.40;;;2.60;;
37645;SDS011;23489;49.600;6.138;2023-11-19T04:07:07;4.35;;;2.40;;
37645;SDS011;23489;49.600;6.138;2023-11-19T04:09:32;3.35;;;2.13;;
37645;SDS011;23489;49.600;6.138;2023-11-19T04:11:58;5.47;;;2.05;;
37645;SDS011;23489;49.600;6.138;2023-11-19T04:14:25;5.13;;;2.42;;
37645;SDS011;23489;49.600;6.138;2023-11-19T04:16:51;7.03;;;3.10;;
37645;SDS011;23489;49.600;6.138;2023-11-19T04:19:20;6.45;;;3.08;;
37645;SDS011;23489;49.600;6.138;2023-11-19T04:21:47;13.55;;;3.13;;
37645;SDS011;23489;49.600;6.138;2023-11-19T04:24:12;5.13;;;3.10;;
37645;SDS011;23489;49.600;6.138;2023-11-19T04:26:40;6.78;;;3.47;;
37645;SDS011;23489;49.600;6.138;2023-11-19T04:29:13;6.03;;;3.10;;
37645;SDS011;23489;49.600;6.138;2023-11-19T04:31:40;4.88;;;3.00;;
37645;SDS011;23489;49.600;6.138;2023-11-19T04:34:06;7.38;;;3.42;;
37645;SDS011;23489;49.600;6.138;2023-11-19T04:36:32;4.95;;;3.00;;
37645;SDS011;23489;49.600;6.138;2023-11-19T04:38:59;4.63;;;2.88;;
37645;SDS011;23489;49.600;6.138;2023-11-19T04:41:25;7.30;;;2.50;;
37645;SDS011;23489;49.600;6.138;2023-11-19T04:43:54;5.50;;;2.72;;
37645;SDS011;23489;49.600;6.138;2023-11-19T04:46:20;2.25;;;2.00;;
37645;SDS011;23489;49.600;6.138;2023-11-19T04:48:46;3.17;;;1.83;;
37645;SDS011;23489;49.600;6.138;2023-11-19T04:51:11;8.32;;;2.05;;
37645;SDS011;23489;49.600;6.138;2023-11-19T04:53:37;3.28;;;1.65;;
37645;SDS011;23489;49.600;6.138;2023-11-19T04:56:09;4.05;;;2.00;;
37645;SDS011;23489;49.600;6.138;2023-11-19T04:58:35;3.35;;;1.60;;
37645;SDS011;23489;49.600;6.138;2023-11-19T05:01:02;3.28;;;1.60;;
37645;SDS011;23489;49.600;6.138;2023-11-19T05:03:30;3.60;;;1.70;;
37645;SDS011;23489;49.600;6.138;2023-11-19T05:05:56;4.28;;;1.80;;
37645;SDS011;23489;49.600;6.138;2023-11-19T05:08:22;3.08;;;1.80;;
37645;SDS011;23489;49.600;6.138;2023-11-19T05:10:48;4.38;;;1.73;;
37645;SDS011;23489;49.600;6.138;2023-11-19T05:13:14;5.40;;;2.53;;
37645;SDS011;23489;49.600;6.138;2023-11-19T05:15:40;5.85;;;1.80;;
37645;SDS011;23489;49.600;6.138;2023-11-19T05:18:05;7.03;;;1.65;;
37645;SDS011;23489;49.600;6.138;2023-11-19T05:20:31;3.00;;;1.80;;
37645;SDS011;23489;49.600;6.138;2023-11-19T05:22:57;3.78;;;1.52;;
37645;SDS011;23489;49.600;6.138;2023-11-19T05:25:25;4.55;;;1.88;;
37645;SDS011;23489;49.600;6.138;2023-11-19T05:27:51;3.38;;;1.92;;
37645;SDS011;23489;49.600;6.138;2023-11-19T05:30:17;2.80;;;1.80;;
37645;SDS011;23489;49.600;6.138;2023-11-19T05:32:43;4.40;;;1.70;;
37645;SDS011;23489;49.600;6.138;2023-11-19T05:35:09;3.45;;;1.73;;
37645;SDS011;23489;49.600;6.138;2023-11-19T05:37:34;5.50;;;1.88;;
37645;SDS011;23489;49.600;6.138;2023-11-19T05:40:00;3.53;;;1.83;;
37645;SDS011;23489;49.600;6.138;2023-11-19T05:42:28;4.68;;;1.73;;
37645;SDS011;23489;49.600;6.138;2023-11-19T05:44:54;3.08;;;1.92;;
37645;SDS011;23489;49.600;6.138;2023-11-19T05:47:20;3.30;;;1.85;;
37645;SDS011;23489;49.600;6.138;2023-11-19T05:49:45;6.28;;;1.73;;
37645;SDS011;23489;49.600;6.138;2023-11-19T05:52:11;5.55;;;1.63;;
37645;SDS011;23489;49.600;6.138;2023-11-19T05:54:37;6.45;;;2.05;;
37645;SDS011;23489;49.600;6.138;2023-11-19T05:57:06;5.10;;;1.50;;
37645;SDS011;23489;49.600;6.138;2023-11-19T05:59:35;5.18;;;1.58;;
37645;SDS011;23489;49.600;6.138;2023-11-19T06:02:01;5.93;;;1.55;;
37645;SDS011;23489;49.600;6.138;2023-11-19T06:04:27;4.30;;;1.70;;
37645;SDS011;23489;49.600;6.138;2023-11-19T06:06:53;7.47;;;1.90;;
37645;SDS011;23489;49.600;6.138;2023-11-19T06:09:20;9.77;;;2.13;;
37645;SDS011;23489;49.600;6.138;2023-11-19T06:11:48;5.82;;;1.80;;
37645;SDS011;23489;49.600;6.138;2023-11-19T06:14:14;5.50;;;1.60;;
37645;SDS011;23489;49.600;6.138;2023-11-19T06:16:40;3.22;;;1.42;;
37645;SDS011;23489;49.600;6.138;2023-11-19T06:19:05;5.32;;;1.60;;
37645;SDS011;23489;49.600;6.138;2023-11-19T06:21:31;5.95;;;1.50;;
37645;SDS011;23489;49.600;6.138;2023-11-19T06:23:56;4.32;;;1.30;;
37645;SDS011;23489;49.600;6.138;2023-11-19T06:26:23;3.33;;;1.63;;
37645;SDS011;23489;49.600;6.138;2023-11-19T06:28:49;7.97;;;1.70;;
37645;SDS011;23489;49.600;6.138;2023-11-19T06:31:14;3.35;;;1.42;;
37645;SDS011;23489;49.600;6.138;2023-11-19T06:33:41;6.38;;;1.83;;
37645;SDS011;23489;49.600;6.138;2023-11-19T06:36:07;5.20;;;1.75;;
37645;SDS011;23489;49.600;6.138;2023-11-19T06:38:34;7.63;;;1.67;;
37645;SDS011;23489;49.600;6.138;2023-11-19T06:41:00;3.58;;;1.77;;
37645;SDS011;23489;49.600;6.138;2023-11-19T06:43:26;4.88;;;1.70;;
37645;SDS011;23489;49.600;6.138;2023-11-19T06:45:53;5.50;;;1.50;;
37645;SDS011;23489;49.600;6.138;2023-11-19T06:48:19;2.67;;;1.42;;
37645;SDS011;23489;49.600;6.138;2023-11-19T06:50:45;5.15;;;1.60;;
37645;SDS011;23489;49.600;6.138;2023-11-19T06:53:10;4.57;;;1.88;;
37645;SDS011;23489;49.600;6.138;2023-11-19T06:55:36;4.35;;;1.50;;
37645;SDS011;23489;49.600;6.138;2023-11-19T06:58:02;8.95;;;1.83;;
37645;SDS011;23489;49.600;6.138;2023-11-19T07:00:28;7.60;;;1.77;;
37645;SDS011;23489;49.600;6.138;2023-11-19T07:02:54;4.65;;;1.98;;
37645;SDS011;23489;49.600;6.138;2023-11-19T07:05:20;4.38;;;1.40;;
37645;SDS011;23489;49.600;6.138;2023-11-19T07:07:46;5.60;;;1.60;;
37645;SDS011;23489;49.600;6.138;2023-11-19T07:10:12;4.38;;;1.65;;
37645;SDS011;23489;49.600;6.138;2023-11-19T07:12:37;4.80;;;1.58;;
37645;SDS011;23489;49.600;6.138;2023-11-19T07:15:03;5.05;;;1.85;;
37645;SDS011;23489;49.600;6.138;2023-11-19T07:17:30;5.63;;;1.70;;
37645;SDS011;23489;49.600;6.138;2023-11-19T07:19:56;6.47;;;1.95;;
37645;SDS011;23489;49.600;6.138;2023-11-19T07:22:24;6.43;;;1.58;;
37645;SDS011;23489;49.600;6.138;2023-11-19T07:24:50;4.50;;;1.33;;
37645;SDS011;23489;49.600;6.138;2023-11-19T07:27:16;4.88;;;2.05;;
37645;SDS011;23489;49.600;6.138;2023-11-19T07:29:43;2.85;;;1.52;;
37645;SDS011;23489;49.600;6.138;2023-11-19T07:32:08;4.90;;;1.75;;
37645;SDS011;23489;49.600;6.138;2023-11-19T07:34:34;3.83;;;1.60;;
37645;SDS011;23489;49.600;6.138;2023-11-19T07:37:00;7.28;;;1.60;;
37645;SDS011;23489;49.600;6.138;2023-11-19T07:39:27;8.48;;;1.95;;
37645;SDS011;23489;49.600;6.138;2023-11-19T07:41:53;7.72;;;1.73;;
37645;SDS011;23489;49.600;6.138;2023-11-19T07:44:20;3.42;;;1.58;;
37645;SDS011;23489;49.600;6.138;2023-11-19T07:46:46;4.88;;;1.40;;
37645;SDS011;23489;49.600;6.138;2023-11-19T07:49:13;5.75;;;1.90;;
37645;SDS011;23489;49.600;6.138;2023-11-19T07:51:38;6.57;;;2.03;;
37645;SDS011;23489;49.600;6.138;2023-11-19T07:54:04;5.38;;;2.38;;
37645;SDS011;23489;49.600;6.138;2023-11-19T07:56:31;3.42;;;1.52;;
37645;SDS011;23489;49.600;6.138;2023-11-19T07:58:59;7.32;;;1.88;;
37645;SDS011;23489;49.600;6.138;2023-11-19T08:01:24;7.60;;;1.45;;
37645;SDS011;23489;49.600;6.138;2023-11-19T08:03:50;2.30;;;1.23;;
37645;SDS011;23489;49.600;6.138;2023-11-19T08:06:16;2.97;;;1.83;;
37645;SDS011;23489;49.600;6.138;2023-11-19T08:08:41;5.78;;;1.77;;
37645;SDS011;23489;49.600;6.138;2023-11-19T08:35:28;5.40;;;1.58;;
37645;SDS011;23489;49.600;6.138;2023-11-19T08:40:20;4.13;;;1.38;;
37645;SDS011;23489;49.600;6.138;2023-11-19T08:42:46;4.40;;;1.48;;
37645;SDS011;23489;49.600;6.138;2023-11-19T08:45:11;4.60;;;1.50;;
37645;SDS011;23489;49.600;6.138;2023-11-19T22:39:07;17.40;;;3.42;;
37645;SDS011;23489;49.600;6.138;2023-11-19T22:41:33;14.32;;;3.33;;
37645;SDS011;23489;49.600;6.138;2023-11-19T22:43:58;14.88;;;3.58;;
37645;SDS011;23489;49.600;6.138;2023-11-19T22:46:24;14.33;;;3.67;;
37645;SDS011;23489;49.600;6.138;2023-11-19T22:48:49;13.15;;;3.45;;
37645;SDS011;23489;49.600;6.138;2023-11-19T22:51:18;13.98;;;3.40;;
37645;SDS011;23489;49.600;6.138;2023-11-19T22:53:44;12.77;;;3.25;;
37645;SDS011;23489;49.600;6.138;2023-11-19T22:56:10;15.20;;;3.20;;
37645;SDS011;23489;49.600;6.138;2023-11-19T22:58:41;10.98;;;3.42;;
37645;SDS011;23489;49.600;6.138;2023-11-19T23:01:07;12.23;;;3.78;;
37645;SDS011;23489;49.600;6.138;2023-11-19T23:03:33;14.10;;;3.33;;
37645;SDS011;23489;49.600;6.138;2023-11-19T23:05:59;11.85;;;3.00;;
37645;SDS011;23489;49.600;6.138;2023-11-19T23:08:24;14.65;;;3.08;;
37645;SDS011;23489;49.600;6.138;2023-11-19T23:10:50;11.80;;;2.90;;
37645;SDS011;23489;49.600;6.138;2023-11-19T23:13:15;12.77;;;3.13;;
37645;SDS011;23489;49.600;6.138;2023-11-19T23:15:41;16.55;;;3.00;;
37645;SDS011;23489;49.600;6.138;2023-11-19T23:18:08;11.77;;;2.80;;
37645;SDS011;23489;49.600;6.138;2023-11-19T23:20:33;13.87;;;3.23;;
37645;SDS011;23489;49.600;6.138;2023-11-19T23:22:59;10.18;;;2.90;;
37645;SDS011;23489;49.600;6.138;2023-11-19T23:25:24;15.23;;;3.20;;
37645;SDS011;23489;49.600;6.138;2023-11-19T23:27:51;13.35;;;2.95;;
37645;SDS011;23489;49.600;6.138;2023-11-19T23:30:17;13.90;;;3.40;;
37645;SDS011;23489;49.600;6.138;2023-11-19T23:32:44;14.20;;;2.97;;
37645;SDS011;23489;49.600;6.138;2023-11-19T23:35:10;14.90;;;3.08;;
37645;SDS011;23489;49.600;6.138;2023-11-19T23:37:36;12.30;;;3.00;;
37645;SDS011;23489;49.600;6.138;2023-11-19T23:40:02;12.17;;;3.07;;
37645;SDS011;23489;49.600;6.138;2023-11-19T23:42:30;17.43;;;3.57;;
37645;SDS011;23489;49.600;6.138;2023-11-19T23:44:57;13.00;;;3.10;;
37645;SDS011;23489;49.600;6.138;2023-11-19T23:47:23;19.45;;;3.42;;
37645;SDS011;23489;49.600;6.138;2023-11-19T23:49:48;15.45;;;3.45;;
37645;SDS011;23489;49.600;6.138;2023-11-19T23:52:14;11.50;;;3.00;;
37645;SDS011;23489;49.600;6.138;2023-11-19T23:54:40;17.35;;;3.65;;
37645;SDS011;23489;49.600;6.138;2023-11-19T23:57:06;15.65;;;3.10;;
37645;SDS011;23489;49.600;6.138;2023-11-19T23:59:32;16.55;;;3.42;;
